sensor_id;sensor_type;location;lat;lon;timestamp;pressure;altitude;pressure_sealevel;temperature;humidity
61628;BME280;55193;52.102;5.242;2022-09-09T00:00:12;100688.0;;;17.28;100.0
61628;BME280;55193;52.102;5.242;2022-09-09T00:01:54;100689.0;;;17.34;99.43
61628;BME280;55193;52.102;5.242;2022-09-09T00:03:39;100686.0;;;17.23;99.1
61628;BME280;55193;52.102;5.242;2022-09-09T00:07:11;100685.0;;;17.32;98.4
61628;BME280;55193;52.102;5.242;2022-09-09T00:08:59;100686.0;;;17.29;99.19
61628;BME280;55193;52.102;5.242;2022-09-09T00:10:40;100685.0;;;17.27;99.19
61628;BME280;55193;52.102;5.242;2022-09-09T00:12:24;100684.0;;;17.2;99.07
61628;BME280;55193;52.102;5.242;2022-09-09T00:14:18;100683.0;;;17.2;99.76
61628;BME280;55193;52.102;5.242;2022-09-09T00:16:01;100681.0;;;17.16;99.63
61628;BME280;55193;52.102;5.242;2022-09-09T00:19:31;100681.0;;;17.09;99.69
61628;BME280;55193;52.102;5.242;2022-09-09T00:21:17;100682.0;;;17.06;99.56
61628;BME280;55193;52.102;5.242;2022-09-09T00:22:59;100677.0;;;17.09;99.21
61628;BME280;55193;52.102;5.242;2022-09-09T00:24:42;100673.0;;;17.02;100.0
61628;BME280;55193;52.102;5.242;2022-09-09T00:26:25;100673.0;;;17.02;100.0
61628;BME280;55193;52.102;5.242;2022-09-09T00:29:56;100676.0;;;16.98;100.0
61628;BME280;55193;52.102;5.242;2022-09-09T00:31:37;100669.0;;;16.98;100.0
61628;BME280;55193;52.102;5.242;2022-09-09T00:33:17;100668.0;;;17.05;99.58
61628;BME280;55193;52.102;5.242;2022-09-09T00:34:57;100673.0;;;17.02;99.6
61628;BME280;55193;52.102;5.242;2022-09-09T00:38:18;100667.0;;;17.0;100.0
61628;BME280;55193;52.102;5.242;2022-09-09T00:39:59;100669.0;;;16.93;100.0
61628;BME280;55193;52.102;5.242;2022-09-09T00:41:46;100669.0;;;16.87;100.0
61628;BME280;55193;52.102;5.242;2022-09-09T00:43:39;100673.0;;;16.9;99.68
61628;BME280;55193;52.102;5.242;2022-09-09T00:45:34;100670.0;;;16.86;100.0
61628;BME280;55193;52.102;5.242;2022-09-09T00:47:34;100671.0;;;16.89;100.0
61628;BME280;55193;52.102;5.242;2022-09-09T00:49:38;100670.0;;;16.86;99.6
61628;BME280;55193;52.102;5.242;2022-09-09T00:53:22;100672.0;;;16.84;100.0
61628;BME280;55193;52.102;5.242;2022-09-09T00:55:10;100673.0;;;16.88;100.0
61628;BME280;55193;52.102;5.242;2022-09-09T00:57:03;100675.0;;;16.89;100.0
61628;BME280;55193;52.102;5.242;2022-09-09T00:58:43;100677.0;;;17.02;98.83
61628;BME280;55193;52.102;5.242;2022-09-09T01:00:29;100674.0;;;16.87;99.49
61628;BME280;55193;52.102;5.242;2022-09-09T01:02:15;100681.0;;;16.84;100.0
61628;BME280;55193;52.102;5.242;2022-09-09T01:05:37;100678.0;;;16.84;99.98
61628;BME280;55193;52.102;5.242;2022-09-09T01:07:17;100681.0;;;16.84;99.43
61628;BME280;55193;52.102;5.242;2022-09-09T01:09:04;100678.0;;;16.84;99.62
61628;BME280;55193;52.102;5.242;2022-09-09T01:10:58;100673.0;;;16.78;98.92
61628;BME280;55193;52.102;5.242;2022-09-09T01:12:38;100669.0;;;16.81;98.88
61628;BME280;55193;52.102;5.242;2022-09-09T01:16:10;100669.0;;;16.77;99.14
61628;BME280;55193;52.102;5.242;2022-09-09T01:17:53;100670.0;;;16.71;99.72
61628;BME280;55193;52.102;5.242;2022-09-09T01:19:45;100673.0;;;16.71;99.6
61628;BME280;55193;52.102;5.242;2022-09-09T01:21:34;100669.0;;;16.65;99.73
61628;BME280;55193;52.102;5.242;2022-09-09T01:23:26;100664.0;;;16.71;99.71
61628;BME280;55193;52.102;5.242;2022-09-09T01:25:20;100661.0;;;16.68;99.58
61628;BME280;55193;52.102;5.242;2022-09-09T01:27:52;100663.0;;;16.7;98.98
61628;BME280;55193;52.102;5.242;2022-09-09T01:29:31;100666.0;;;16.7;99.06
61628;BME280;55193;52.102;5.242;2022-09-09T01:32:54;100661.0;;;16.59;99.95
61628;BME280;55193;52.102;5.242;2022-09-09T01:34:34;100661.0;;;16.52;99.96
61628;BME280;55193;52.102;5.242;2022-09-09T01:36:20;100660.0;;;16.52;100.0
61628;BME280;55193;52.102;5.242;2022-09-09T01:38:00;100663.0;;;16.38;100.0
61628;BME280;55193;52.102;5.242;2022-09-09T01:39:39;100663.0;;;16.34;100.0
61628;BME280;55193;52.102;5.242;2022-09-09T01:42:55;100666.0;;;16.36;100.0
61628;BME280;55193;52.102;5.242;2022-09-09T01:44:32;100666.0;;;16.36;100.0
61628;BME280;55193;52.102;5.242;2022-09-09T01:46:11;100661.0;;;16.37;100.0
61628;BME280;55193;52.102;5.242;2022-09-09T01:49:26;100658.0;;;16.39;100.0
61628;BME280;55193;52.102;5.242;2022-09-09T01:51:03;100658.0;;;16.34;100.0
61628;BME280;55193;52.102;5.242;2022-09-09T01:52:39;100655.0;;;16.3;100.0
61628;BME280;55193;52.102;5.242;2022-09-09T01:54:16;100655.0;;;16.34;100.0
61628;BME280;55193;52.102;5.242;2022-09-09T01:57:49;100652.0;;;16.3;100.0
61628;BME280;55193;52.102;5.242;2022-09-09T01:59:41;100648.0;;;16.25;100.0
61628;BME280;55193;52.102;5.242;2022-09-09T02:01:34;100651.0;;;16.23;100.0
61628;BME280;55193;52.102;5.242;2022-09-09T02:03:20;100647.0;;;16.2;100.0
61628;BME280;55193;52.102;5.242;2022-09-09T02:05:07;100642.0;;;16.13;100.0
61628;BME280;55193;52.102;5.242;2022-09-09T02:06:55;100639.0;;;16.12;100.0
61628;BME280;55193;52.102;5.242;2022-09-09T02:10:22;100641.0;;;16.09;100.0
61628;BME280;55193;52.102;5.242;2022-09-09T02:12:08;100637.0;;;16.2;100.0
61628;BME280;55193;52.102;5.242;2022-09-09T02:13:49;100630.0;;;16.14;100.0
61628;BME280;55193;52.102;5.242;2022-09-09T02:15:32;100633.0;;;16.15;100.0
61628;BME280;55193;52.102;5.242;2022-09-09T02:17:19;100631.0;;;16.15;100.0
61628;BME280;55193;52.102;5.242;2022-09-09T02:20:42;100630.0;;;16.14;100.0
61628;BME280;55193;52.102;5.242;2022-09-09T02:22:22;100628.0;;;16.21;100.0
61628;BME280;55193;52.102;5.242;2022-09-09T02:24:02;100635.0;;;16.09;100.0
61628;BME280;55193;52.102;5.242;2022-09-09T02:25:41;100642.0;;;16.05;100.0
61628;BME280;55193;52.102;5.242;2022-09-09T02:28:59;100639.0;;;16.03;100.0
61628;BME280;55193;52.102;5.242;2022-09-09T02:30:39;100642.0;;;16.07;100.0
61628;BME280;55193;52.102;5.242;2022-09-09T02:32:22;100638.0;;;16.0;100.0
61628;BME280;55193;52.102;5.242;2022-09-09T02:34:00;100634.0;;;15.96;100.0
61628;BME280;55193;52.102;5.242;2022-09-09T02:37:20;100638.0;;;15.98;100.0
61628;BME280;55193;52.102;5.242;2022-09-09T02:38:58;100631.0;;;16.02;100.0
61628;BME280;55193;52.102;5.242;2022-09-09T02:40:35;100633.0;;;16.06;100.0
61628;BME280;55193;52.102;5.242;2022-09-09T02:43:47;100631.0;;;16.05;100.0
61628;BME280;55193;52.102;5.242;2022-09-09T02:45:27;100634.0;;;16.04;100.0
61628;BME280;55193;52.102;5.242;2022-09-09T02:47:19;100630.0;;;15.97;100.0
61628;BME280;55193;52.102;5.242;2022-09-09T02:49:02;100628.0;;;15.95;100.0
61628;BME280;55193;52.102;5.242;2022-09-09T02:50:49;100630.0;;;16.02;100.0
61628;BME280;55193;52.102;5.242;2022-09-09T02:54:25;100624.0;;;16.03;100.0
61628;BME280;55193;52.102;5.242;2022-09-09T02:56:04;100626.0;;;15.99;100.0
61628;BME280;55193;52.102;5.242;2022-09-09T02:57:48;100622.0;;;15.98;100.0
61628;BME280;55193;52.102;5.242;2022-09-09T02:59:26;100625.0;;;15.94;100.0
61628;BME280;55193;52.102;5.242;2022-09-09T03:02:39;100619.0;;;15.92;100.0
61628;BME280;55193;52.102;5.242;2022-09-09T03:04:15;100622.0;;;15.89;100.0
61628;BME280;55193;52.102;5.242;2022-09-09T03:05:51;100624.0;;;15.89;100.0
61628;BME280;55193;52.102;5.242;2022-09-09T03:07:28;100622.0;;;15.83;100.0
61628;BME280;55193;52.102;5.242;2022-09-09T03:10:40;100622.0;;;15.87;100.0
61628;BME280;55193;52.102;5.242;2022-09-09T03:12:16;100619.0;;;15.88;100.0
61628;BME280;55193;52.102;5.242;2022-09-09T03:13:53;100623.0;;;15.91;100.0
61628;BME280;55193;52.102;5.242;2022-09-09T03:17:09;100620.0;;;15.88;100.0
61628;BME280;55193;52.102;5.242;2022-09-09T03:18:46;100616.0;;;15.8;100.0
61628;BME280;55193;52.102;5.242;2022-09-09T03:20:22;100616.0;;;15.8;100.0
61628;BME280;55193;52.102;5.242;2022-09-09T03:23:36;100619.0;;;15.78;100.0
61628;BME280;55193;52.102;5.242;2022-09-09T03:25:12;100615.0;;;15.78;100.0
61628;BME280;55193;52.102;5.242;2022-09-09T03:26:50;100620.0;;;15.79;100.0
61628;BME280;55193;52.102;5.242;2022-09-09T03:28:31;100615.0;;;15.88;100.0
61628;BME280;55193;52.102;5.242;2022-09-09T03:31:44;100617.0;;;15.83;100.0
61628;BME280;55193;52.102;5.242;2022-09-09T03:33:20;100617.0;;;15.9;100.0
61628;BME280;55193;52.102;5.242;2022-09-09T03:34:57;100611.0;;;15.89;100.0
61628;BME280;55193;52.102;5.242;2022-09-09T03:38:10;100610.0;;;15.84;100.0
61628;BME280;55193;52.102;5.242;2022-09-09T03:39:46;100613.0;;;15.79;100.0
61628;BME280;55193;52.102;5.242;2022-09-09T03:41:24;100612.0;;;15.87;100.0
61628;BME280;55193;52.102;5.242;2022-09-09T03:43:01;100618.0;;;15.84;100.0
61628;BME280;55193;52.102;5.242;2022-09-09T03:46:13;100611.0;;;15.87;100.0
61628;BME280;55193;52.102;5.242;2022-09-09T03:47:50;100608.0;;;15.9;100.0
61628;BME280;55193;52.102;5.242;2022-09-09T03:49:28;100613.0;;;15.85;100.0
61628;BME280;55193;52.102;5.242;2022-09-09T03:52:42;100615.0;;;15.88;100.0
61628;BME280;55193;52.102;5.242;2022-09-09T03:54:18;100615.0;;;15.87;100.0
61628;BME280;55193;52.102;5.242;2022-09-09T03:55:56;100617.0;;;15.87;100.0
61628;BME280;55193;52.102;5.242;2022-09-09T03:59:12;100613.0;;;15.95;99.81
61628;BME280;55193;52.102;5.242;2022-09-09T04:00:53;100614.0;;;15.91;100.0
61628;BME280;55193;52.102;5.242;2022-09-09T04:02:30;100613.0;;;15.92;99.68
61628;BME280;55193;52.102;5.242;2022-09-09T04:04:07;100607.0;;;15.96;99.5
61628;BME280;55193;52.102;5.242;2022-09-09T04:07:25;100615.0;;;15.9;99.58
61628;BME280;55193;52.102;5.242;2022-09-09T04:09:03;100611.0;;;15.82;100.0
61628;BME280;55193;52.102;5.242;2022-09-09T04:10:39;100613.0;;;15.89;99.98
61628;BME280;55193;52.102;5.242;2022-09-09T04:12:16;100609.0;;;15.91;99.89
61628;BME280;55193;52.102;5.242;2022-09-09T04:15:29;100603.0;;;15.9;99.99
61628;BME280;55193;52.102;5.242;2022-09-09T04:17:06;100599.0;;;15.82;100.0
61628;BME280;55193;52.102;5.242;2022-09-09T04:18:42;100599.0;;;15.85;100.0
61628;BME280;55193;52.102;5.242;2022-09-09T04:21:55;100599.0;;;15.81;100.0
61628;BME280;55193;52.102;5.242;2022-09-09T04:23:31;100599.0;;;15.79;100.0
61628;BME280;55193;52.102;5.242;2022-09-09T04:25:08;100603.0;;;15.83;100.0
61628;BME280;55193;52.102;5.242;2022-09-09T04:28:24;100595.0;;;15.84;100.0
61628;BME280;55193;52.102;5.242;2022-09-09T04:30:01;100593.0;;;15.92;100.0
61628;BME280;55193;52.102;5.242;2022-09-09T04:31:42;100595.0;;;15.99;100.0
61628;BME280;55193;52.102;5.242;2022-09-09T04:33:18;100590.0;;;16.02;99.81
61628;BME280;55193;52.102;5.242;2022-09-09T04:36:32;100594.0;;;16.09;99.14
61628;BME280;55193;52.102;5.242;2022-09-09T04:38:09;100590.0;;;15.96;99.83
61628;BME280;55193;52.102;5.242;2022-09-09T04:39:45;100585.0;;;15.94;99.9
61628;BME280;55193;52.102;5.242;2022-09-09T04:42:58;100580.0;;;15.93;99.8
61628;BME280;55193;52.102;5.242;2022-09-09T04:44:35;100583.0;;;15.88;99.95
61628;BME280;55193;52.102;5.242;2022-09-09T04:46:11;100578.0;;;15.79;100.0
61628;BME280;55193;52.102;5.242;2022-09-09T04:49:23;100575.0;;;15.84;100.0
61628;BME280;55193;52.102;5.242;2022-09-09T04:51:01;100576.0;;;15.81;100.0
61628;BME280;55193;52.102;5.242;2022-09-09T04:52:37;100581.0;;;15.9;99.92
61628;BME280;55193;52.102;5.242;2022-09-09T04:54:14;100581.0;;;15.88;99.93
61628;BME280;55193;52.102;5.242;2022-09-09T04:57:26;100586.0;;;15.84;100.0
61628;BME280;55193;52.102;5.242;2022-09-09T04:59:03;100581.0;;;15.89;99.61
61628;BME280;55193;52.102;5.242;2022-09-09T05:00:38;100584.0;;;15.85;100.0
61628;BME280;55193;52.102;5.242;2022-09-09T05:03:52;100581.0;;;15.89;100.0
61628;BME280;55193;52.102;5.242;2022-09-09T05:05:28;100585.0;;;15.84;100.0
61628;BME280;55193;52.102;5.242;2022-09-09T05:07:04;100587.0;;;15.95;99.84
61628;BME280;55193;52.102;5.242;2022-09-09T05:10:18;100581.0;;;15.97;99.64
61628;BME280;55193;52.102;5.242;2022-09-09T05:11:57;100580.0;;;15.97;99.78
61628;BME280;55193;52.102;5.242;2022-09-09T05:13:34;100581.0;;;15.89;100.0
61628;BME280;55193;52.102;5.242;2022-09-09T05:15:10;100580.0;;;15.92;100.0
61628;BME280;55193;52.102;5.242;2022-09-09T05:18:23;100576.0;;;15.85;100.0
61628;BME280;55193;52.102;5.242;2022-09-09T05:20:00;100573.0;;;15.93;100.0
61628;BME280;55193;52.102;5.242;2022-09-09T05:21:36;100573.0;;;15.9;100.0
61628;BME280;55193;52.102;5.242;2022-09-09T05:24:50;100570.0;;;15.94;100.0
61628;BME280;55193;52.102;5.242;2022-09-09T05:26:26;100572.0;;;15.89;100.0
61628;BME280;55193;52.102;5.242;2022-09-09T05:28:02;100574.0;;;15.9;100.0
61628;BME280;55193;52.102;5.242;2022-09-09T05:29:38;100577.0;;;15.92;100.0
61628;BME280;55193;52.102;5.242;2022-09-09T05:32:55;100576.0;;;15.9;100.0
61628;BME280;55193;52.102;5.242;2022-09-09T05:34:32;100574.0;;;15.92;100.0
61628;BME280;55193;52.102;5.242;2022-09-09T05:36:09;100574.0;;;15.96;100.0
61628;BME280;55193;52.102;5.242;2022-09-09T05:39:23;100566.0;;;16.02;100.0
61628;BME280;55193;52.102;5.242;2022-09-09T05:41:00;100560.0;;;16.02;100.0
61628;BME280;55193;52.102;5.242;2022-09-09T05:42:37;100563.0;;;15.99;100.0
61628;BME280;55193;52.102;5.242;2022-09-09T05:45:59;100561.0;;;16.03;100.0
61628;BME280;55193;52.102;5.242;2022-09-09T05:47:36;100561.0;;;15.97;100.0
61628;BME280;55193;52.102;5.242;2022-09-09T05:49:12;100563.0;;;16.02;100.0
61628;BME280;55193;52.102;5.242;2022-09-09T05:50:52;100570.0;;;16.05;100.0
61628;BME280;55193;52.102;5.242;2022-09-09T05:54:05;100576.0;;;16.18;100.0
61628;BME280;55193;52.102;5.242;2022-09-09T05:55:42;100580.0;;;16.25;99.34
61628;BME280;55193;52.102;5.242;2022-09-09T05:57:19;100581.0;;;16.29;99.1
61628;BME280;55193;52.102;5.242;2022-09-09T06:00:32;100587.0;;;16.39;98.28
61628;BME280;55193;52.102;5.242;2022-09-09T06:02:09;100580.0;;;16.43;98.3
61628;BME280;55193;52.102;5.242;2022-09-09T06:03:46;100586.0;;;16.36;99.02
61628;BME280;55193;52.102;5.242;2022-09-09T06:05:23;100583.0;;;16.46;98.76
61628;BME280;55193;52.102;5.242;2022-09-09T06:08:39;100581.0;;;16.43;99.06
61628;BME280;55193;52.102;5.242;2022-09-09T06:10:16;100581.0;;;16.5;99.07
61628;BME280;55193;52.102;5.242;2022-09-09T06:11:54;100583.0;;;16.5;99.06
61628;BME280;55193;52.102;5.242;2022-09-09T06:15:09;100577.0;;;16.63;98.05
61628;BME280;55193;52.102;5.242;2022-09-09T06:16:46;100582.0;;;16.63;97.73
61628;BME280;55193;52.102;5.242;2022-09-09T06:18:22;100580.0;;;16.63;97.56
61628;BME280;55193;52.102;5.242;2022-09-09T06:19:59;100575.0;;;16.61;98.3
61628;BME280;55193;52.102;5.242;2022-09-09T06:23:13;100582.0;;;16.68;98.05
61628;BME280;55193;52.102;5.242;2022-09-09T06:24:49;100582.0;;;16.71;97.89
61628;BME280;55193;52.102;5.242;2022-09-09T06:26:27;100576.0;;;16.77;97.91
61628;BME280;55193;52.102;5.242;2022-09-09T06:29:39;100580.0;;;16.78;98.33
61628;BME280;55193;52.102;5.242;2022-09-09T06:31:19;100581.0;;;16.88;97.81
61628;BME280;55193;52.102;5.242;2022-09-09T06:32:56;100574.0;;;16.93;97.55
61628;BME280;55193;52.102;5.242;2022-09-09T06:34:32;100571.0;;;16.89;98.42
61628;BME280;55193;52.102;5.242;2022-09-09T06:37:48;100570.0;;;16.98;98.03
61628;BME280;55193;52.102;5.242;2022-09-09T06:39:24;100569.0;;;17.05;98.2
61628;BME280;55193;52.102;5.242;2022-09-09T06:41:02;100571.0;;;17.13;98.1
61628;BME280;55193;52.102;5.242;2022-09-09T06:44:15;100572.0;;;17.2;97.73
61628;BME280;55193;52.102;5.242;2022-09-09T06:45:53;100574.0;;;17.25;97.67
61628;BME280;55193;52.102;5.242;2022-09-09T06:47:30;100568.0;;;17.27;97.63
61628;BME280;55193;52.102;5.242;2022-09-09T06:50:43;100565.0;;;17.27;97.68
61628;BME280;55193;52.102;5.242;2022-09-09T06:52:19;100569.0;;;17.41;97.23
61628;BME280;55193;52.102;5.242;2022-09-09T06:53:57;100566.0;;;17.55;97.13
61628;BME280;55193;52.102;5.242;2022-09-09T06:55:35;100564.0;;;17.57;96.89
61628;BME280;55193;52.102;5.242;2022-09-09T06:58:49;100561.0;;;17.72;95.66
61628;BME280;55193;52.102;5.242;2022-09-09T07:00:26;100569.0;;;17.84;95.18
61628;BME280;55193;52.102;5.242;2022-09-09T07:02:03;100566.0;;;17.86;94.4
61628;BME280;55193;52.102;5.242;2022-09-09T07:05:16;100570.0;;;17.86;94.5
61628;BME280;55193;52.102;5.242;2022-09-09T07:06:52;100565.0;;;17.91;93.89
61628;BME280;55193;52.102;5.242;2022-09-09T07:08:28;100560.0;;;17.88;93.97
61628;BME280;55193;52.102;5.242;2022-09-09T07:10:05;100571.0;;;18.0;93.91
61628;BME280;55193;52.102;5.242;2022-09-09T07:13:24;100563.0;;;18.05;93.63
61628;BME280;55193;52.102;5.242;2022-09-09T07:15:01;100561.0;;;18.11;93.16
61628;BME280;55193;52.102;5.242;2022-09-09T07:16:37;100564.0;;;18.18;93.68
61628;BME280;55193;52.102;5.242;2022-09-09T07:19:49;100556.0;;;18.29;92.77
61628;BME280;55193;52.102;5.242;2022-09-09T07:21:28;100553.0;;;18.37;92.7
61628;BME280;55193;52.102;5.242;2022-09-09T07:23:04;100555.0;;;18.45;91.6
61628;BME280;55193;52.102;5.242;2022-09-09T07:26:20;100564.0;;;18.52;91.49
61628;BME280;55193;52.102;5.242;2022-09-09T07:27:57;100569.0;;;18.5;91.38
61628;BME280;55193;52.102;5.242;2022-09-09T07:29:33;100566.0;;;18.5;90.31
61628;BME280;55193;52.102;5.242;2022-09-09T07:31:13;100565.0;;;18.56;90.66
61628;BME280;55193;52.102;5.242;2022-09-09T07:34:27;100571.0;;;18.61;90.79
61628;BME280;55193;52.102;5.242;2022-09-09T07:36:07;100566.0;;;18.59;90.23
61628;BME280;55193;52.102;5.242;2022-09-09T07:37:43;100567.0;;;18.56;90.43
61628;BME280;55193;52.102;5.242;2022-09-09T07:41:03;100569.0;;;18.54;89.92
61628;BME280;55193;52.102;5.242;2022-09-09T07:42:39;100574.0;;;18.53;90.27
61628;BME280;55193;52.102;5.242;2022-09-09T07:44:18;100581.0;;;18.48;90.83
61628;BME280;55193;52.102;5.242;2022-09-09T07:45:57;100580.0;;;18.48;90.62
61628;BME280;55193;52.102;5.242;2022-09-09T07:49:10;100581.0;;;18.47;90.85
61628;BME280;55193;52.102;5.242;2022-09-09T07:50:47;100575.0;;;18.52;90.35
61628;BME280;55193;52.102;5.242;2022-09-09T07:52:23;100581.0;;;18.52;89.82
61628;BME280;55193;52.102;5.242;2022-09-09T07:55:38;100589.0;;;18.5;89.43
61628;BME280;55193;52.102;5.242;2022-09-09T07:57:15;100586.0;;;18.57;89.76
61628;BME280;55193;52.102;5.242;2022-09-09T07:58:54;100589.0;;;18.61;89.68
61628;BME280;55193;52.102;5.242;2022-09-09T08:00:30;100587.0;;;18.7;89.49
61628;BME280;55193;52.102;5.242;2022-09-09T08:03:45;100586.0;;;18.64;89.07
61628;BME280;55193;52.102;5.242;2022-09-09T08:05:28;100577.0;;;18.61;89.24
61628;BME280;55193;52.102;5.242;2022-09-09T08:07:04;100581.0;;;18.7;89.07
61628;BME280;55193;52.102;5.242;2022-09-09T08:08:41;100580.0;;;18.61;88.97
61628;BME280;55193;52.102;5.242;2022-09-09T08:11:56;100580.0;;;18.55;88.04
61628;BME280;55193;52.102;5.242;2022-09-09T08:13:34;100580.0;;;18.52;88.62
61628;BME280;55193;52.102;5.242;2022-09-09T08:15:11;100575.0;;;18.5;88.61
61628;BME280;55193;52.102;5.242;2022-09-09T08:18:26;100574.0;;;18.52;88.93
61628;BME280;55193;52.102;5.242;2022-09-09T08:20:06;100580.0;;;18.53;88.87
61628;BME280;55193;52.102;5.242;2022-09-09T08:21:43;100581.0;;;18.52;88.44
61628;BME280;55193;52.102;5.242;2022-09-09T08:23:21;100588.0;;;18.5;87.59
61628;BME280;55193;52.102;5.242;2022-09-09T08:26:36;100592.0;;;18.54;87.79
61628;BME280;55193;52.102;5.242;2022-09-09T08:28:12;100587.0;;;18.46;88.46
61628;BME280;55193;52.102;5.242;2022-09-09T08:29:48;100589.0;;;18.47;88.07
61628;BME280;55193;52.102;5.242;2022-09-09T08:33:05;100587.0;;;18.5;88.24
61628;BME280;55193;52.102;5.242;2022-09-09T08:34:41;100590.0;;;18.48;87.87
61628;BME280;55193;52.102;5.242;2022-09-09T08:36:19;100586.0;;;18.53;87.94
61628;BME280;55193;52.102;5.242;2022-09-09T08:37:58;100593.0;;;18.61;87.75
61628;BME280;55193;52.102;5.242;2022-09-09T08:41:27;100587.0;;;18.7;87.68
61628;BME280;55193;52.102;5.242;2022-09-09T08:43:43;100591.0;;;18.8;87.57
61628;BME280;55193;52.102;5.242;2022-09-09T08:45:27;100592.0;;;18.84;87.71
61628;BME280;55193;52.102;5.242;2022-09-09T08:47:13;100595.0;;;18.8;86.58
61628;BME280;55193;52.102;5.242;2022-09-09T08:49:02;100595.0;;;18.79;86.98
61628;BME280;55193;52.102;5.242;2022-09-09T08:50:44;100605.0;;;18.73;87.14
61628;BME280;55193;52.102;5.242;2022-09-09T08:54:04;100610.0;;;18.72;86.85
61628;BME280;55193;52.102;5.242;2022-09-09T08:55:45;100603.0;;;18.72;86.52
61628;BME280;55193;52.102;5.242;2022-09-09T08:57:23;100601.0;;;18.61;86.63
61628;BME280;55193;52.102;5.242;2022-09-09T08:59:04;100601.0;;;18.62;87.67
61628;BME280;55193;52.102;5.242;2022-09-09T09:02:50;100605.0;;;18.68;87.54
61628;BME280;55193;52.102;5.242;2022-09-09T09:04:45;100603.0;;;18.7;87.0
61628;BME280;55193;52.102;5.242;2022-09-09T09:06:39;100608.0;;;18.71;86.86
61628;BME280;55193;52.102;5.242;2022-09-09T09:08:26;100607.0;;;18.7;86.4
61628;BME280;55193;52.102;5.242;2022-09-09T09:10:13;100609.0;;;18.73;86.78
61628;BME280;55193;52.102;5.242;2022-09-09T09:12:01;100611.0;;;18.75;86.44
61628;BME280;55193;52.102;5.242;2022-09-09T09:13:47;100606.0;;;18.71;86.83
61628;BME280;55193;52.102;5.242;2022-09-09T09:17:14;100612.0;;;18.68;86.6
61628;BME280;55193;52.102;5.242;2022-09-09T09:18:55;100611.0;;;18.7;86.84
61628;BME280;55193;52.102;5.242;2022-09-09T09:20:39;100615.0;;;18.73;87.02
61628;BME280;55193;52.102;5.242;2022-09-09T09:22:21;100607.0;;;18.7;86.97
61628;BME280;55193;52.102;5.242;2022-09-09T09:24:00;100611.0;;;18.75;86.65
61628;BME280;55193;52.102;5.242;2022-09-09T09:27:25;100613.0;;;18.75;86.77
61628;BME280;55193;52.102;5.242;2022-09-09T09:29:11;100619.0;;;18.78;86.04
61628;BME280;55193;52.102;5.242;2022-09-09T09:30:51;100618.0;;;18.75;86.72
61628;BME280;55193;52.102;5.242;2022-09-09T09:32:33;100611.0;;;18.73;86.49
61628;BME280;55193;52.102;5.242;2022-09-09T09:35:48;100617.0;;;18.7;86.96
61628;BME280;55193;52.102;5.242;2022-09-09T09:37:28;100614.0;;;18.68;87.05
61628;BME280;55193;52.102;5.242;2022-09-09T09:39:06;100612.0;;;18.75;87.26
61628;BME280;55193;52.102;5.242;2022-09-09T09:40:49;100613.0;;;18.75;86.69
61628;BME280;55193;52.102;5.242;2022-09-09T09:44:21;100626.0;;;18.75;87.61
61628;BME280;55193;52.102;5.242;2022-09-09T09:46:03;100624.0;;;18.7;89.36
61628;BME280;55193;52.102;5.242;2022-09-09T09:47:41;100630.0;;;18.59;91.57
61628;BME280;55193;52.102;5.242;2022-09-09T09:49:17;100624.0;;;18.46;93.04
61628;BME280;55193;52.102;5.242;2022-09-09T09:52:35;100622.0;;;18.34;94.33
61628;BME280;55193;52.102;5.242;2022-09-09T09:54:18;100620.0;;;18.31;94.86
61628;BME280;55193;52.102;5.242;2022-09-09T09:56:00;100622.0;;;18.3;95.49
61628;BME280;55193;52.102;5.242;2022-09-09T09:57:39;100619.0;;;18.23;95.78
61628;BME280;55193;52.102;5.242;2022-09-09T10:01:20;100611.0;;;18.16;97.01
61628;BME280;55193;52.102;5.242;2022-09-09T10:02:59;100613.0;;;18.18;96.9
61628;BME280;55193;52.102;5.242;2022-09-09T10:04:36;100611.0;;;18.11;97.55
61628;BME280;55193;52.102;5.242;2022-09-09T10:06:12;100614.0;;;18.09;97.75
61628;BME280;55193;52.102;5.242;2022-09-09T10:09:37;100616.0;;;18.12;97.99
61628;BME280;55193;52.102;5.242;2022-09-09T10:11:27;100611.0;;;18.09;98.3
61628;BME280;55193;52.102;5.242;2022-09-09T10:13:11;100612.0;;;18.12;97.91
61628;BME280;55193;52.102;5.242;2022-09-09T10:14:56;100611.0;;;18.16;97.28
61628;BME280;55193;52.102;5.242;2022-09-09T10:16:49;100607.0;;;18.16;96.98
61628;BME280;55193;52.102;5.242;2022-09-09T10:18:40;100612.0;;;18.21;97.06
61628;BME280;55193;52.102;5.242;2022-09-09T10:22:21;100621.0;;;18.2;96.46
61628;BME280;55193;52.102;5.242;2022-09-09T10:24:14;100625.0;;;18.12;96.11
61628;BME280;55193;52.102;5.242;2022-09-09T10:26:11;100626.0;;;18.14;95.95
61628;BME280;55193;52.102;5.242;2022-09-09T10:31:06;100630.0;;;18.02;98.28
61628;BME280;55193;52.102;5.242;2022-09-09T10:34:55;100630.0;;;18.11;98.78
61628;BME280;55193;52.102;5.242;2022-09-09T10:36:32;100621.0;;;18.07;100.0
61628;BME280;55193;52.102;5.242;2022-09-09T10:38:17;100620.0;;;18.16;100.0
61628;BME280;55193;52.102;5.242;2022-09-09T10:40:02;100622.0;;;18.28;100.0
61628;BME280;55193;52.102;5.242;2022-09-09T10:41:58;100617.0;;;18.31;100.0
61628;BME280;55193;52.102;5.242;2022-09-09T10:43:49;100614.0;;;18.37;100.0
61628;BME280;55193;52.102;5.242;2022-09-09T10:47:37;100614.0;;;18.41;100.0
61628;BME280;55193;52.102;5.242;2022-09-09T10:49:38;100611.0;;;18.48;99.71
61628;BME280;55193;52.102;5.242;2022-09-09T10:51:27;100613.0;;;18.43;99.57
61628;BME280;55193;52.102;5.242;2022-09-09T10:53:09;100620.0;;;18.43;99.29
61628;BME280;55193;52.102;5.242;2022-09-09T10:54:57;100614.0;;;18.5;98.91
61628;BME280;55193;52.102;5.242;2022-09-09T10:56:37;100609.0;;;18.5;100.0
61628;BME280;55193;52.102;5.242;2022-09-09T10:58:17;100612.0;;;18.61;99.4
61628;BME280;55193;52.102;5.242;2022-09-09T11:01:45;100609.0;;;18.61;99.09
61628;BME280;55193;52.102;5.242;2022-09-09T11:03:25;100600.0;;;18.72;98.64
61628;BME280;55193;52.102;5.242;2022-09-09T11:05:06;100601.0;;;18.72;98.98
61628;BME280;55193;52.102;5.242;2022-09-09T11:06:53;100606.0;;;18.75;98.68
61628;BME280;55193;52.102;5.242;2022-09-09T11:10:18;100601.0;;;18.73;97.74